Time;durP1;ratioP1;P1;durP2;ratioP2;P2;SDS_P1;SDS_P2;PMS_P1;PMS_P2;Temp;Humidity;BMP_temperature;BMP_pressure;BME280_temperature;BME280_humidity;BME280_pressure;Samples;Min_cycle;Max_cycle;Signal;HPM_P1;HPM_P2
2024/02/18 00:01:57;;;;;;;18.13;15.60;;;;;;;11.73;95.11;97270.25;5029119;28;20604;-84
2024/02/18 00:04:23;;;;;;;16.57;14.10;;;;;;;11.69;94.98;97263.75;5026177;28;20195;-85
2024/02/18 00:06:51;;;;;;;17.53;15.30;;;;;;;11.57;95.71;97275.19;5018510;28;20806;-84
2024/02/18 00:09:18;;;;;;;16.87;15.07;;;;;;;11.59;95.88;97281.81;5017789;28;20210;-83
2024/02/18 00:11:44;;;;;;;18.37;14.90;;;;;;;11.63;96.24;97285.75;5026050;28;20261;-83
2024/02/18 00:14:21;;;;;;;16.23;14.53;;;;;;;11.63;95.84;97284.94;5035163;28;20202;-85
2024/02/18 00:16:47;;;;;;;16.40;14.23;;;;;;;11.61;95.87;97292.00;5030996;28;20202;-84
2024/02/18 00:19:14;;;;;;;16.57;14.70;;;;;;;11.67;95.08;97281.13;5024359;28;20229;-84
2024/02/18 00:21:40;;;;;;;16.53;14.73;;;;;;;11.71;94.75;97285.88;5034118;28;20198;-83
2024/02/18 00:24:10;;;;;;;17.77;14.50;;;;;;;11.70;94.42;97278.28;5037608;28;20202;-83
2024/02/18 00:26:37;;;;;;;16.13;14.43;;;;;;;11.70;94.21;97271.34;5036354;28;20606;-84
2024/02/18 00:29:04;;;;;;;18.27;14.87;;;;;;;11.71;93.85;97260.06;5035917;28;20229;-86
2024/02/18 00:31:30;;;;;;;19.67;15.57;;;;;;;11.59;94.05;97256.03;5035756;28;20305;-86
2024/02/18 00:33:57;;;;;;;17.73;15.47;;;;;;;11.53;94.75;97266.94;5029949;28;20202;-86
2024/02/18 00:36:23;;;;;;;16.80;14.47;;;;;;;11.50;95.04;97282.69;5034000;28;20198;-86
2024/02/18 00:38:50;;;;;;;17.77;14.93;;;;;;;11.52;95.37;97290.28;5030635;28;20634;-86
2024/02/18 00:41:20;;;;;;;17.40;15.07;;;;;;;11.59;95.36;97292.16;5014150;28;20230;-86
2024/02/18 00:43:46;;;;;;;17.33;15.43;;;;;;;11.63;94.46;97283.19;5014073;28;20561;-87
2024/02/18 00:46:13;;;;;;;18.10;16.00;;;;;;;11.64;93.97;97266.75;5014943;28;20210;-86
2024/02/18 00:48:41;;;;;;;18.60;15.70;;;;;;;11.61;93.50;97261.03;5030617;28;20209;-87
2024/02/18 00:51:08;;;;;;;17.00;15.20;;;;;;;11.58;93.86;97258.75;5022385;28;20226;-87
2024/02/18 00:53:34;;;;;;;18.43;15.63;;;;;;;11.57;94.30;97267.44;5035261;28;20194;-87
2024/02/18 00:56:01;;;;;;;17.13;14.83;;;;;;;11.60;94.53;97273.13;5034729;28;20194;-86
2024/02/18 00:58:28;;;;;;;18.77;15.60;;;;;;;11.64;94.58;97271.09;5033621;28;20245;-86
2024/02/18 01:00:55;;;;;;;19.30;16.03;;;;;;;11.67;94.42;97274.22;5027650;28;20210;-86
2024/02/18 01:03:21;;;;;;;18.00;15.47;;;;;;;11.71;94.27;97277.31;5014064;28;20249;-86
2024/02/18 01:05:48;;;;;;;22.07;17.40;;;;;;;11.74;94.28;97272.66;5017422;28;20206;-87
2024/02/18 01:08:16;;;;;;;22.40;17.43;;;;;;;11.75;94.32;97276.88;5030889;28;20198;-86
2024/02/18 01:10:42;;;;;;;19.73;16.33;;;;;;;11.77;93.85;97274.19;5027990;28;20218;-86
2024/02/18 01:13:09;;;;;;;19.67;15.93;;;;;;;11.73;93.83;97265.91;5031892;28;20207;-86
2024/02/18 01:15:38;;;;;;;17.87;15.67;;;;;;;11.71;93.86;97267.00;5033563;28;20281;-86
2024/02/18 01:18:04;;;;;;;18.23;15.97;;;;;;;11.68;94.21;97272.44;5014467;28;20209;-86
2024/02/18 01:20:31;;;;;;;20.80;16.17;;;;;;;11.70;94.12;97262.78;5013399;28;20254;-86
2024/02/18 01:22:57;;;;;;;18.97;15.93;;;;;;;11.65;94.14;97254.66;5025965;28;20202;-86
2024/02/18 01:25:26;;;;;;;21.17;17.40;;;;;;;11.67;94.24;97257.91;5033769;28;20214;-86
2024/02/18 01:27:58;;;;;;;21.43;17.03;;;;;;;11.68;94.62;97262.13;5028074;28;20195;-86
2024/02/18 01:30:25;;;;;;;21.00;17.27;;;;;;;11.70;94.56;97267.94;5014654;28;20218;-87
2024/02/18 01:32:59;;;;;;;19.37;16.60;;;;;;;11.66;94.78;97266.59;5030387;28;20252;-86
2024/02/18 01:35:25;;;;;;;20.07;16.77;;;;;;;11.59;95.12;97274.09;5032351;28;20202;-86
2024/02/18 01:37:51;;;;;;;20.73;16.47;;;;;;;11.60;95.06;97274.91;5030374;28;20260;-86
2024/02/18 01:40:18;;;;;;;22.50;16.90;;;;;;;11.58;95.22;97285.34;5022739;28;20695;-87
2024/02/18 01:42:44;;;;;;;17.70;15.60;;;;;;;11.64;95.12;97281.41;5018736;28;20194;-88
2024/02/18 01:45:11;;;;;;;20.07;15.93;;;;;;;11.66;95.01;97282.09;5033337;28;20206;-86
2024/02/18 01:47:41;;;;;;;18.50;16.20;;;;;;;11.68;95.06;97293.09;5028024;28;20290;-85
2024/02/18 01:50:11;;;;;;;16.20;14.37;;;;;;;11.69;94.87;97292.94;5017183;28;20758;-85
2024/02/18 01:52:44;;;;;;;17.47;14.57;;;;;;;11.65;94.79;97273.53;5029938;28;20218;-86
2024/02/18 01:55:12;;;;;;;18.57;15.13;;;;;;;11.62;94.89;97273.00;5022456;28;20194;-86
2024/02/18 01:57:39;;;;;;;18.70;15.57;;;;;;;11.61;95.05;97272.19;5027883;28;20206;-86
2024/02/18 02:00:12;;;;;;;16.63;14.20;;;;;;;11.61;95.10;97274.75;5031688;28;20325;-86
2024/02/18 02:02:39;;;;;;;16.77;14.10;;;;;;;11.62;94.68;97275.56;5034783;28;20289;-83
2024/02/18 02:05:12;;;;;;;17.40;14.87;;;;;;;11.52;94.63;97259.31;5033750;28;20236;-84
2024/02/18 02:07:39;;;;;;;18.47;15.20;;;;;;;11.41;95.33;97266.28;5029216;28;20764;-85
2024/02/18 02:10:12;;;;;;;17.50;14.10;;;;;;;11.40;95.87;97274.97;5028264;28;20245;-84
2024/02/18 02:12:38;;;;;;;15.77;13.87;;;;;;;11.38;96.09;97271.69;5027173;28;20198;-83
2024/02/18 02:15:06;;;;;;;17.10;14.10;;;;;;;11.37;96.06;97270.06;5034867;28;20230;-84
2024/02/18 02:17:32;;;;;;;16.57;14.07;;;;;;;11.38;96.42;97273.47;5036266;28;20452;-84
2024/02/18 02:19:59;;;;;;;15.03;12.80;;;;;;;11.40;96.10;97261.25;5035050;28;20226;-84
2024/02/18 02:22:27;;;;;;;15.33;13.07;;;;;;;11.43;96.15;97260.97;5021229;28;20639;-84
2024/02/18 02:24:53;;;;;;;15.30;13.70;;;;;;;11.39;96.10;97257.03;5013733;28;20215;-84
2024/02/18 02:27:24;;;;;;;17.13;13.70;;;;;;;11.39;96.46;97262.19;5024131;28;20265;-83
2024/02/18 02:29:52;;;;;;;16.57;13.80;;;;;;;11.41;96.08;97257.72;5030299;28;20496;-84
2024/02/18 02:32:19;;;;;;;18.07;14.20;;;;;;;11.42;95.98;97249.03;5034207;28;20688;-83
2024/02/18 02:34:46;;;;;;;15.03;13.40;;;;;;;11.37;96.29;97249.44;5035212;28;20301;-83
2024/02/18 02:37:13;;;;;;;14.73;12.83;;;;;;;11.31;96.25;97237.13;5033083;28;20241;-85
2024/02/18 02:39:40;;;;;;;15.67;13.70;;;;;;;11.29;96.89;97251.91;5034243;28;20226;-84
2024/02/18 02:42:07;;;;;;;14.23;12.70;;;;;;;11.32;97.07;97249.06;5030295;28;20210;-83
2024/02/18 02:44:33;;;;;;;16.47;13.37;;;;;;;11.38;96.79;97252.84;5027852;28;20232;-83
2024/02/18 02:47:01;;;;;;;14.43;12.93;;;;;;;11.39;96.08;97233.81;5041520;28;20260;-84
2024/02/18 02:49:29;;;;;;;15.50;13.57;;;;;;;11.37;95.81;97233.97;5036576;28;20265;-84
2024/02/18 02:51:55;;;;;;;14.60;12.60;;;;;;;11.34;95.67;97226.53;5039894;28;20202;-84
2024/02/18 02:54:24;;;;;;;15.70;13.13;;;;;;;11.28;95.68;97232.25;5040727;28;20194;-84
2024/02/18 02:56:50;;;;;;;14.17;12.50;;;;;;;11.22;96.13;97230.22;5040747;28;20212;-84
2024/02/18 02:59:16;;;;;;;14.33;12.00;;;;;;;11.21;96.44;97238.91;5036976;28;20325;-85
2024/02/18 03:01:43;;;;;;;14.40;12.20;;;;;;;11.21;96.28;97246.63;5037934;28;20221;-84
2024/02/18 03:04:12;;;;;;;13.00;11.60;;;;;;;11.22;96.65;97242.28;5034922;28;20190;-84
2024/02/18 03:06:39;;;;;;;12.47;11.17;;;;;;;11.17;96.64;97229.00;5031088;28;20216;-85
2024/02/18 03:09:05;;;;;;;13.23;11.73;;;;;;;11.19;96.20;97221.94;5038497;28;20201;-84
2024/02/18 03:11:31;;;;;;;13.10;11.70;;;;;;;11.20;95.86;97224.38;5038421;28;20486;-85
2024/02/18 03:13:58;;;;;;;13.73;11.87;;;;;;;11.19;95.70;97215.03;5037499;28;20194;-83
2024/02/18 03:16:24;;;;;;;13.37;11.97;;;;;;;11.17;95.46;97214.34;5026231;28;20226;-84
2024/02/18 03:18:51;;;;;;;13.13;11.67;;;;;;;11.13;95.83;97217.38;5028181;28;20253;-85
2024/02/18 03:21:18;;;;;;;12.77;11.37;;;;;;;11.08;96.17;97217.78;5034433;28;20230;-84
2024/02/18 03:23:50;;;;;;;14.23;12.20;;;;;;;11.03;95.77;97209.63;5021829;28;20203;-85
2024/02/18 03:26:16;;;;;;;13.13;11.17;;;;;;;11.06;96.00;97209.38;5022743;28;20198;-83
2024/02/18 03:28:43;;;;;;;13.60;12.07;;;;;;;11.04;95.46;97195.81;5029562;28;20739;-87
2024/02/18 03:31:19;;;;;;;14.80;12.10;;;;;;;11.08;95.11;97189.41;5024576;28;20218;-87
2024/02/18 03:33:54;;;;;;;15.10;11.20;;;;;;;11.09;94.47;97183.31;5027662;28;20249;-86
2024/02/18 03:36:22;;;;;;;12.43;11.13;;;;;;;11.09;93.76;97170.44;5024891;28;20201;-87
2024/02/18 03:38:48;;;;;;;12.17;10.87;;;;;;;11.08;93.51;97156.72;5031403;28;20199;-87
2024/02/18 03:41:18;;;;;;;13.37;11.23;;;;;;;11.02;92.81;97152.13;5019561;28;20292;-87
2024/02/18 03:43:45;;;;;;;15.43;11.53;;;;;;;10.99;92.93;97154.97;5019654;28;20262;-87
2024/02/18 03:46:11;;;;;;;13.00;11.60;;;;;;;10.94;92.76;97143.47;5032257;28;20618;-87
2024/02/18 03:48:38;;;;;;;13.07;11.30;;;;;;;10.85;92.28;97144.31;5027089;28;20215;-87
2024/02/18 03:51:04;;;;;;;12.90;11.17;;;;;;;10.86;92.63;97161.41;5039158;28;20240;-86
2024/02/18 03:53:32;;;;;;;12.43;10.87;;;;;;;10.87;92.16;97153.53;5037513;28;20198;-88
2024/02/18 03:55:58;;;;;;;12.27;10.97;;;;;;;10.84;91.66;97150.41;5039649;28;20210;-86
2024/02/18 03:58:25;;;;;;;11.67;10.53;;;;;;;10.78;90.94;97127.78;5035644;28;20278;-86
2024/02/18 04:00:51;;;;;;;12.17;10.83;;;;;;;10.68;91.15;97135.53;5035158;28;20229;-87
2024/02/18 04:03:18;;;;;;;11.80;10.60;;;;;;;10.68;91.48;97138.91;5034419;28;20202;-87
2024/02/18 04:05:44;;;;;;;11.77;10.57;;;;;;;10.71;91.24;97136.06;5019005;28;20321;-86
2024/02/18 04:08:10;;;;;;;12.43;10.70;;;;;;;10.73;90.63;97126.44;5039690;28;20233;-87
2024/02/18 04:10:38;;;;;;;11.40;10.17;;;;;;;10.64;89.78;97108.41;5038841;28;20222;-82
2024/02/18 04:13:04;;;;;;;12.03;10.83;;;;;;;10.55;89.91;97119.56;5022119;28;20214;-86
2024/02/18 04:15:31;;;;;;;12.87;10.10;;;;;;;10.57;90.13;97128.78;5020436;28;20203;-87
2024/02/18 04:17:57;;;;;;;11.30;9.93;;;;;;;10.60;89.85;97119.94;5019788;28;20285;-84
2024/02/18 04:20:24;;;;;;;12.50;10.77;;;;;;;10.52;89.31;97109.53;5029490;28;20248;-84
2024/02/18 04:22:51;;;;;;;11.90;10.67;;;;;;;10.53;89.76;97109.41;5040421;28;20237;-84
2024/02/18 04:25:20;;;;;;;11.63;10.43;;;;;;;10.49;89.82;97114.97;5040860;28;20210;-83
2024/02/18 04:27:48;;;;;;;11.97;10.63;;;;;;;10.41;89.87;97115.63;5041178;28;20806;-87
2024/02/18 04:30:14;;;;;;;12.77;10.67;;;;;;;10.30;90.92;97129.50;5039563;28;20218;-87
2024/02/18 04:32:40;;;;;;;12.77;10.50;;;;;;;10.34;91.41;97142.91;5038129;28;20198;-86
2024/02/18 04:35:07;;;;;;;13.10;10.97;;;;;;;10.20;91.93;97149.25;5037252;28;20245;-85
2024/02/18 04:37:34;;;;;;;12.20;10.73;;;;;;;10.24;92.24;97160.91;5026881;28;20621;-83
2024/02/18 04:40:00;;;;;;;12.23;10.93;;;;;;;10.28;92.21;97159.69;5040134;28;20221;-84
2024/02/18 04:42:27;;;;;;;13.03;10.57;;;;;;;10.36;92.13;97156.47;5039593;28;20206;-83
2024/02/18 04:44:54;;;;;;;12.10;10.30;;;;;;;10.37;91.62;97150.38;5041105;28;20648;-84
2024/02/18 04:47:22;;;;;;;11.60;10.40;;;;;;;10.30;91.40;97147.50;5034924;28;20199;-84
2024/02/18 04:49:48;;;;;;;12.63;10.67;;;;;;;10.23;92.08;97161.03;5032267;28;20277;-84
2024/02/18 04:52:15;;;;;;;11.73;10.53;;;;;;;10.15;92.91;97182.31;5033084;28;20206;-83
2024/02/18 04:54:41;;;;;;;11.50;10.30;;;;;;;10.19;93.50;97191.41;5031688;28;20738;-84
2024/02/18 04:57:08;;;;;;;10.37;9.27;;;;;;;10.28;93.33;97200.06;5031078;28;20194;-84
2024/02/18 04:59:34;;;;;;;11.00;9.40;;;;;;;10.37;92.66;97186.41;5036967;28;20222;-85
2024/02/18 05:02:03;;;;;;;11.87;9.93;;;;;;;10.43;92.37;97175.53;5038784;28;20225;-85
2024/02/18 05:04:31;;;;;;;10.37;9.27;;;;;;;10.45;92.25;97172.84;5039027;28;20289;-84
2024/02/18 05:06:57;;;;;;;11.57;9.63;;;;;;;10.46;92.03;97166.75;5038119;28;20202;-84
2024/02/18 05:09:24;;;;;;;10.40;9.40;;;;;;;10.46;92.19;97169.31;5029649;28;20211;-83
2024/02/18 05:11:50;;;;;;;11.73;10.53;;;;;;;10.29;92.93;97178.53;5026691;28;20205;-85
2024/02/18 05:14:17;;;;;;;10.97;9.87;;;;;;;10.26;93.81;97196.81;5034026;28;20199;-86
2024/02/18 05:16:43;;;;;;;12.30;11.00;;;;;;;10.21;94.87;97207.50;5019132;28;20277;-84
2024/02/18 05:19:11;;;;;;;13.07;10.87;;;;;;;10.22;95.19;97208.34;5018215;28;20203;-84
2024/02/18 05:21:39;;;;;;;13.27;11.87;;;;;;;10.23;95.87;97212.53;5024787;28;20780;-85
2024/02/18 05:24:06;;;;;;;12.73;11.00;;;;;;;10.32;95.67;97209.16;5035532;28;20202;-84
2024/02/18 05:26:32;;;;;;;12.27;10.83;;;;;;;10.41;95.23;97207.53;5028676;28;20206;-86
2024/02/18 05:28:58;;;;;;;12.17;10.87;;;;;;;10.47;94.44;97187.19;5036368;28;20228;-84
2024/02/18 05:31:26;;;;;;;12.47;10.67;;;;;;;10.51;93.60;97165.38;5038022;28;20252;-84
2024/02/18 05:33:53;;;;;;;11.17;9.57;;;;;;;10.43;93.34;97156.72;5038102;28;20941;-84
2024/02/18 05:36:21;;;;;;;13.50;11.20;;;;;;;10.23;93.85;97158.47;5037123;28;20676;-85
2024/02/18 05:38:48;;;;;;;12.10;10.80;;;;;;;10.16;94.53;97181.34;5037806;28;20202;-84
2024/02/18 05:41:14;;;;;;;13.80;10.77;;;;;;;10.19;95.05;97183.69;5032835;28;20238;-84
2024/02/18 05:43:40;;;;;;;12.00;10.70;;;;;;;10.25;94.80;97184.91;5017053;28;20207;-84
2024/02/18 05:46:07;;;;;;;13.57;12.17;;;;;;;10.31;94.38;97181.78;5017596;28;20203;-83
2024/02/18 05:48:34;;;;;;;13.87;11.63;;;;;;;10.33;93.97;97177.31;5018202;28;20237;-84
2024/02/18 05:51:00;;;;;;;16.13;14.37;;;;;;;10.32;93.21;97168.78;5023687;28;20223;-86
2024/02/18 05:53:29;;;;;;;13.03;11.10;;;;;;;10.25;93.06;97165.13;5023547;28;20203;-84
2024/02/18 05:55:59;;;;;;;12.77;11.10;;;;;;;10.25;93.07;97166.88;5027651;28;20206;-87
2024/02/18 05:58:25;;;;;;;12.57;10.70;;;;;;;10.26;92.88;97165.94;5029283;28;20205;-84
2024/02/18 06:00:52;;;;;;;13.47;11.30;;;;;;;10.18;92.54;97158.88;5020941;28;20630;-84
2024/02/18 06:03:18;;;;;;;13.03;10.83;;;;;;;10.23;92.74;97158.47;5017265;28;20195;-85
2024/02/18 06:05:45;;;;;;;11.57;10.37;;;;;;;10.24;92.68;97165.25;5017419;28;20203;-84
2024/02/18 06:08:11;;;;;;;13.00;11.60;;;;;;;10.25;92.04;97165.13;5031437;28;20198;-85
2024/02/18 06:10:39;;;;;;;12.07;9.77;;;;;;;10.25;91.72;97152.25;5016731;28;20218;-85
2024/02/18 06:13:05;;;;;;;13.23;10.17;;;;;;;10.25;91.79;97146.28;5023439;28;20209;-85
2024/02/18 06:15:32;;;;;;;13.13;10.83;;;;;;;10.14;91.59;97149.78;5029982;28;20663;-85
2024/02/18 06:17:59;;;;;;;12.17;9.83;;;;;;;10.15;91.75;97154.00;5024696;28;20194;-84
2024/02/18 06:20:27;;;;;;;11.27;10.07;;;;;;;10.15;92.02;97160.91;5017873;28;20231;-86
2024/02/18 06:22:53;;;;;;;13.00;10.63;;;;;;;10.19;90.99;97144.28;5032118;28;20205;-84
2024/02/18 06:25:20;;;;;;;12.93;10.23;;;;;;;10.23;90.53;97135.31;5034396;28;20210;-84
2024/02/18 06:27:50;;;;;;;11.70;10.47;;;;;;;10.23;90.41;97132.72;5034211;28;20201;-86
2024/02/18 06:30:18;;;;;;;11.87;9.90;;;;;;;10.20;90.30;97133.03;5028391;28;20237;-84
2024/02/18 06:32:45;;;;;;;11.57;9.90;;;;;;;10.15;90.09;97123.09;5042467;28;20205;-85
2024/02/18 06:35:11;;;;;;;13.27;10.13;;;;;;;10.10;90.05;97120.13;5041546;28;20206;-84
2024/02/18 06:37:38;;;;;;;11.17;9.53;;;;;;;10.09;89.94;97109.94;5036899;28;20198;-85
2024/02/18 06:40:09;;;;;;;12.23;10.27;;;;;;;10.02;90.32;97128.50;5036872;28;20221;-84
2024/02/18 06:42:36;;;;;;;12.03;10.27;;;;;;;9.99;91.29;97133.94;5030109;28;20205;-85
2024/02/18 06:45:04;;;;;;;11.63;10.07;;;;;;;10.03;91.38;97147.31;5024989;28;20252;-84
2024/02/18 06:47:30;;;;;;;11.33;9.53;;;;;;;10.11;91.40;97147.47;5027573;28;20206;-84
2024/02/18 06:49:56;;;;;;;11.77;9.43;;;;;;;10.18;90.86;97135.72;5033889;28;20881;-85
2024/02/18 06:52:23;;;;;;;10.73;9.37;;;;;;;10.34;90.52;97133.41;5031006;28;20232;-85
2024/02/18 06:54:49;;;;;;;11.20;9.63;;;;;;;10.57;89.41;97110.75;5025887;28;20253;-84
2024/02/18 06:57:15;;;;;;;10.77;9.37;;;;;;;10.76;87.69;97081.56;5028022;28;20191;-84
2024/02/18 06:59:42;;;;;;;11.83;9.60;;;;;;;10.75;86.83;97067.06;5028575;28;20230;-84
2024/02/18 07:02:10;;;;;;;12.30;9.33;;;;;;;10.75;86.56;97049.03;5029260;28;20205;-85
2024/02/18 07:04:38;;;;;;;9.40;8.20;;;;;;;10.64;86.92;97056.91;5034606;28;20285;-83
2024/02/18 07:07:06;;;;;;;10.43;9.30;;;;;;;10.62;87.17;97066.53;5019981;28;20206;-83
2024/02/18 07:09:33;;;;;;;9.07;8.10;;;;;;;10.63;87.20;97066.41;5028445;28;20205;-85
2024/02/18 07:11:59;;;;;;;10.63;8.87;;;;;;;10.59;87.45;97064.22;5027323;28;20221;-85
2024/02/18 07:14:25;;;;;;;10.07;8.80;;;;;;;10.67;87.00;97059.22;5018646;28;20249;-84
2024/02/18 07:16:54;;;;;;;9.50;8.50;;;;;;;10.79;85.80;97034.88;5013924;28;20222;-84
2024/02/18 07:19:21;;;;;;;9.60;8.20;;;;;;;10.71;85.65;97027.06;5019917;28;20268;-84
2024/02/18 07:21:48;;;;;;;9.23;8.00;;;;;;;10.79;85.79;97036.63;5022255;28;20214;-84
2024/02/18 07:24:16;;;;;;;8.80;7.73;;;;;;;11.31;84.29;97020.53;5025349;28;20194;-83
2024/02/18 07:26:43;;;;;;;8.60;7.70;;;;;;;11.75;81.17;96940.59;5034082;28;20267;-84
2024/02/18 07:29:11;;;;;;;8.67;7.87;;;;;;;12.11;78.52;96879.41;5034007;28;20297;-85
2024/02/18 07:31:47;;;;;;;8.07;7.27;;;;;;;12.37;76.49;96828.50;5021022;28;20225;-85
2024/02/18 07:37:41;;;;;;;7.70;7.00;;;;;;;12.63;73.84;96747.50;5006288;28;20633;-84
2024/02/18 07:43:16;;;;;;;7.60;6.90;;;;;;;13.28;70.69;96631.91;5024054;28;20205;-85
2024/02/18 07:45:55;;;;;;;7.60;6.90;;;;;;;13.60;70.09;96604.28;5032945;28;20248;-85
2024/02/18 07:48:47;;;;;;;8.20;7.40;;;;;;;13.69;68.02;96539.34;5032927;28;20261;-87
2024/02/18 07:51:20;;;;;;;8.77;7.97;;;;;;;13.63;68.66;96558.19;5031672;28;20623;-84
2024/02/18 07:54:05;;;;;;;9.13;8.20;;;;;;;13.72;68.75;96572.66;5032152;28;20678;-85
2024/02/18 07:56:34;;;;;;;9.13;8.20;;;;;;;14.00;68.52;96572.97;5031057;28;20263;-83
2024/02/18 07:59:01;;;;;;;8.80;8.00;;;;;;;14.28;67.41;96525.78;5024733;28;20195;-85
2024/02/18 08:01:27;;;;;;;8.23;7.37;;;;;;;14.58;66.73;96504.16;5028956;28;20222;-84
2024/02/18 08:03:56;;;;;;;8.20;7.40;;;;;;;14.84;66.07;96483.72;5030127;28;20267;-85
2024/02/18 08:06:23;;;;;;;8.23;7.43;;;;;;;14.95;65.33;96445.38;5015996;28;20211;-87
2024/02/18 08:08:53;;;;;;;7.50;6.80;;;;;;;14.83;65.66;96447.59;5013934;28;20203;-87
2024/02/18 08:11:19;;;;;;;7.85;7.15;;;;;;;14.35;66.29;96465.31;5019065;28;20209;-87
2024/02/18 08:13:47;;;;;;;8.00;7.10;;;;;;;14.04;67.91;96534.59;5034929;28;20194;-84
2024/02/18 08:16:14;;;;;;;7.93;7.22;;;;;;;14.41;67.75;96542.38;5037014;28;20205;-84
2024/02/18 08:18:41;;;;;;;7.10;6.50;;;;;;;14.68;66.46;96499.47;5037151;28;20194;-87
2024/02/18 08:21:09;;;;;;;7.00;6.40;;;;;;;14.55;66.29;96480.38;5032099;28;20221;-84
2024/02/18 08:23:35;;;;;;;7.40;6.80;;;;;;;14.42;66.18;96479.22;5037776;28;20240;-84
2024/02/18 08:26:07;;;;;;;7.32;6.63;;;;;;;14.39;67.13;96515.81;5038718;28;20214;-83
2024/02/18 08:28:34;;;;;;;7.80;6.72;;;;;;;14.74;66.55;96505.75;5018468;28;20230;-87
2024/02/18 08:31:00;;;;;;;7.97;7.28;;;;;;;14.97;65.28;96456.38;5017653;28;20912;-84
2024/02/18 08:33:27;;;;;;;7.80;7.10;;;;;;;15.14;64.80;96419.66;5027151;28;20549;-84
2024/02/18 08:35:54;;;;;;;7.75;7.05;;;;;;;15.29;64.08;96395.44;5022421;28;20198;-84
2024/02/18 08:38:21;;;;;;;8.15;7.43;;;;;;;15.43;63.81;96381.56;5024917;28;20239;-85
2024/02/18 08:40:47;;;;;;;8.00;7.30;;;;;;;15.70;63.71;96377.44;5038235;28;20284;-84
2024/02/18 08:43:15;;;;;;;8.00;7.30;;;;;;;15.84;62.92;96343.56;5036234;28;20199;-84
2024/02/18 08:45:41;;;;;;;9.98;9.07;;;;;;;16.00;62.51;96326.88;5037892;28;20202;-84
2024/02/18 08:48:08;;;;;;;9.73;8.82;;;;;;;16.10;62.11;96296.16;5037957;28;20202;-83
2024/02/18 08:50:34;;;;;;;8.65;7.85;;;;;;;16.10;61.40;96261.59;5031555;28;20682;-84
2024/02/18 08:53:02;;;;;;;8.18;7.38;;;;;;;16.05;61.83;96276.94;5031259;28;20202;-83
2024/02/18 08:55:28;;;;;;;8.60;7.80;;;;;;;16.10;62.02;96284.97;5027447;28;20207;-83
2024/02/18 08:57:54;;;;;;;8.32;7.53;;;;;;;16.21;61.94;96285.22;5017634;28;20214;-84
2024/02/18 09:00:22;;;;;;;8.98;8.13;;;;;;;16.35;61.50;96274.88;5026576;28;20214;-84
2024/02/18 09:02:49;;;;;;;9.00;8.20;;;;;;;15.85;61.40;96243.09;5036799;28;20206;-84
2024/02/18 09:05:15;;;;;;;9.10;8.20;;;;;;;16.03;62.49;96315.31;5040362;28;20675;-84
2024/02/18 09:07:42;;;;;;;8.90;8.10;;;;;;;16.07;61.86;96267.97;5043777;28;20206;-84
2024/02/18 09:10:09;;;;;;;11.63;8.25;;;;;;;16.31;61.73;96273.66;5034967;28;20261;-83
2024/02/18 09:12:36;;;;;;;8.70;7.80;;;;;;;16.44;62.01;96277.09;5035023;28;20198;-85
2024/02/18 09:15:03;;;;;;;9.35;8.48;;;;;;;16.64;62.04;96295.38;5041314;28;20206;-84
2024/02/18 09:17:31;;;;;;;9.70;8.80;;;;;;;16.83;60.96;96244.41;5040005;28;20273;-85
2024/02/18 09:19:57;;;;;;;11.88;9.45;;;;;;;16.73;60.75;96236.19;5034340;28;20265;-85
2024/02/18 09:22:27;;;;;;;19.85;17.42;;;;;;;16.26;61.44;96235.25;5028807;28;20257;-82
2024/02/18 09:28:50;;;;;;;10.93;9.82;;;;;;;16.75;62.04;96304.38;4936588;28;20206;-84
2024/02/18 09:31:40;;;;;;;11.63;10.52;;;;;;;17.04;61.42;96264.22;5024128;28;20296;-84
2024/02/18 09:34:34;;;;;;;10.38;9.43;;;;;;;17.19;59.75;96179.72;5030400;28;20191;-84
2024/02/18 09:37:01;;;;;;;11.93;10.82;;;;;;;17.37;59.85;96193.91;5014809;28;20987;-84
2024/02/18 09:39:30;;;;;;;11.88;10.77;;;;;;;17.45;60.22;96196.31;5017558;28;20204;-84
2024/02/18 09:41:58;;;;;;;12.07;10.98;;;;;;;17.24;59.82;96166.91;5023666;28;20272;-82
2024/02/18 09:44:27;;;;;;;10.80;9.73;;;;;;;17.20;58.52;96092.84;5035284;28;20226;-82
2024/02/18 09:49:59;;;;;;;12.70;11.45;;;;;;;17.18;59.17;96146.91;5013843;28;20231;-82
2024/02/18 09:52:28;;;;;;;12.60;11.35;;;;;;;17.25;58.92;96105.25;5020643;28;20554;-83
2024/02/18 09:54:55;;;;;;;11.70;10.60;;;;;;;17.24;57.83;96064.63;5035508;28;20396;-84
2024/02/18 09:57:21;;;;;;;9.80;8.77;;;;;;;17.14;57.35;96013.00;5029460;28;20210;-84
2024/02/18 09:59:48;;;;;;;12.07;9.95;;;;;;;17.27;56.15;95937.47;5024850;28;20243;-83
2024/02/18 10:02:16;;;;;;;9.60;8.60;;;;;;;16.95;54.83;95836.19;5028425;28;20214;-84
2024/02/18 10:04:46;;;;;;;9.30;8.30;;;;;;;16.73;54.32;95755.91;5023093;28;20253;-83
2024/02/18 10:07:16;;;;;;;8.27;7.47;;;;;;;16.50;52.93;95714.84;5023196;28;20194;-83
2024/02/18 10:09:47;;;;;;;8.40;7.60;;;;;;;16.73;53.70;95781.94;5021950;28;20199;-84
2024/02/18 10:12:16;;;;;;;7.43;6.72;;;;;;;16.99;52.06;95697.69;5022510;28;20260;-84
2024/02/18 10:14:42;;;;;;;7.00;6.40;;;;;;;16.63;52.44;95698.38;5024180;28;20199;-84
2024/02/18 10:17:12;;;;;;;6.95;6.30;;;;;;;16.50;52.59;95691.44;5027286;28;20218;-83
2024/02/18 10:19:38;;;;;;;6.90;5.72;;;;;;;16.88;52.38;95729.59;5035015;28;20206;-83
2024/02/18 10:22:06;;;;;;;6.40;5.68;;;;;;;16.79;51.64;95656.25;5027101;28;20260;-82
2024/02/18 10:24:34;;;;;;;7.25;6.55;;;;;;;16.91;52.73;95697.97;5034411;28;20202;-83
2024/02/18 10:27:01;;;;;;;7.30;6.55;;;;;;;16.62;51.78;95646.56;5026080;28;20594;-83
2024/02/18 10:29:29;;;;;;;6.43;5.82;;;;;;;16.24;51.79;95635.25;5028524;28;20862;-84
2024/02/18 10:34:48;;;;;;;7.00;6.30;;;;;;;15.60;53.79;95752.16;5010342;28;20286;-83
2024/02/18 10:37:32;;;;;;;6.78;6.18;;;;;;;16.10;52.57;95722.06;5012963;28;20211;-83
2024/02/18 10:40:54;;;;;;;6.75;5.85;;;;;;;16.18;52.40;95698.41;5017403;28;20612;-83
2024/02/18 10:57:33;;;;;;;7.38;6.60;;;;;;;15.31;54.54;95853.78;4942732;29;20240;-84
2024/02/18 11:07:18;;;;;;;6.78;5.55;;;;;;;15.30;54.27;95808.09;4819510;29;20343;-84
2024/02/18 11:21:01;;;;;;;5.13;4.70;;;;;;;15.71;53.76;95769.75;4930919;29;20598;-83
2024/02/18 11:27:37;;;;;;;;;;;;;;;;;;;;;
2024/02/18 11:33:50;;;;;;;4.95;4.30;;;;;;;16.10;51.34;95617.34;5011187;28;20636;-83
2024/02/18 11:36:28;;;;;;;4.95;4.55;;;;;;;16.30;51.88;95649.19;5027444;28;20259;-83
2024/02/18 11:42:29;;;;;;;4.30;3.90;;;;;;;16.23;51.33;95599.88;5031595;28;20232;-83
2024/02/18 11:45:15;;;;;;;4.50;4.10;;;;;;;16.40;52.06;95643.53;5017222;28;20218;-83
2024/02/18 11:51:20;;;;;;;5.07;3.92;;;;;;;16.91;50.58;95576.53;5020989;28;20230;-82
2024/02/18 11:58:13;;;;;;;4.20;3.88;;;;;;;16.54;49.90;95499.47;4928655;29;20220;-83
2024/02/18 12:00:59;;;;;;;4.72;4.20;;;;;;;16.37;51.83;95613.56;4938181;29;20221;-84
2024/02/18 12:03:25;;;;;;;4.32;3.92;;;;;;;16.36;51.56;95606.75;5009719;28;20672;-84
2024/02/18 12:05:52;;;;;;;4.38;3.97;;;;;;;16.53;51.21;95584.47;5022595;28;20217;-84
2024/02/18 12:14:59;;;;;;;4.00;3.60;;;;;;;16.74;51.07;95564.31;4999241;28;20269;-83
2024/02/18 12:17:35;;;;;;;4.25;3.75;;;;;;;16.22;50.84;95528.13;5035128;28;20206;-83
2024/02/18 12:20:28;;;;;;;4.07;3.78;;;;;;;15.99;51.23;95553.88;5027753;28;20213;-84
2024/02/18 12:22:58;;;;;;;4.90;4.50;;;;;;;15.69;51.83;95578.84;4961146;28;20230;-84
2024/02/18 12:25:39;;;;;;;4.80;4.40;;;;;;;16.01;52.16;95614.19;5027629;28;20210;-84
2024/02/18 12:28:20;;;;;;;4.00;3.60;;;;;;;16.54;52.22;95616.44;5026900;28;20199;-85
2024/02/18 12:30:50;;;;;;;3.90;3.53;;;;;;;16.97;50.74;95554.03;5024407;28;20218;-84
2024/02/18 12:33:21;;;;;;;3.40;3.10;;;;;;;16.97;50.12;95494.22;5026329;28;20190;-82
2024/02/18 12:35:49;;;;;;;3.58;3.28;;;;;;;16.88;49.21;95440.91;5024834;28;20203;-82
2024/02/18 12:38:18;;;;;;;3.75;3.33;;;;;;;16.88;49.51;95440.91;5025360;28;20580;-82
2024/02/18 12:41:07;;;;;;;;;;;;;;;;;;;;;
2024/02/18 12:43:34;;;;;;;3.72;3.38;;;;;;;16.69;49.25;95415.94;5024105;28;20309;-82
2024/02/18 12:46:04;;;;;;;3.00;2.80;;;;;;;16.94;49.67;95453.03;5023645;28;20567;-85
2024/02/18 12:48:33;;;;;;;93.22;83.63;;;;;;;17.08;49.77;95459.69;5022866;28;20217;-86